Time;durP1;ratioP1;P1;durP2;ratioP2;P2;SDS_P1;SDS_P2;PMS_P1;PMS_P2;Temp;Humidity;BMP_temperature;BMP_pressure;BME280_temperature;BME280_humidity;BME280_pressure;Samples;Min_cycle;Max_cycle;Signal;HPM_P1;HPM_P2
2022/10/23 00:01:57;;;;;;;77.70;53.70;;;19.60;81.00;;;;;;4947587;28;87075;-56
2022/10/23 00:04:26;;;;;;;74.93;53.13;;;19.60;81.10;;;;;;4943520;28;87291;-58
2022/10/23 00:06:52;;;;;;;77.43;53.22;;;19.60;81.00;;;;;;4949297;28;85494;-57
2022/10/23 00:09:20;;;;;;;74.95;53.40;;;19.60;80.90;;;;;;4948273;28;85646;-54
2022/10/23 00:11:47;;;;;;;74.82;53.03;;;19.60;80.90;;;;;;4953418;28;86553;-55
2022/10/23 00:14:14;;;;;;;73.93;53.22;;;19.60;80.90;;;;;;4952893;28;87229;-57
2022/10/23 00:16:39;;;;;;;75.55;53.00;;;19.60;80.90;;;;;;4953279;28;85814;-57
2022/10/23 00:19:05;;;;;;;75.78;53.00;;;19.60;80.90;;;;;;4945823;28;87392;-58
2022/10/23 00:21:31;;;;;;;74.75;53.28;;;19.60;80.90;;;;;;4956195;28;85458;-57
2022/10/23 00:23:57;;;;;;;76.00;53.53;;;19.60;80.80;;;;;;4950791;28;90589;-57
2022/10/23 00:26:23;;;;;;;74.03;53.00;;;19.60;80.90;;;;;;4952755;28;85350;-58
2022/10/23 00:28:51;;;;;;;75.07;53.08;;;19.60;80.80;;;;;;4952727;28;87642;-56
2022/10/23 00:31:19;;;;;;;78.30;53.90;;;19.60;80.90;;;;;;4954529;28;89507;-54
2022/10/23 00:33:45;;;;;;;73.53;52.42;;;19.60;80.90;;;;;;4952487;28;85880;-56
2022/10/23 00:36:13;;;;;;;75.63;53.33;;;19.60;80.80;;;;;;4961024;28;85329;-54
2022/10/23 00:38:39;;;;;;;74.05;53.28;;;19.60;80.90;;;;;;4944069;28;86872;-58
2022/10/23 00:41:07;;;;;;;72.78;52.70;;;19.60;80.90;;;;;;4952801;28;85648;-55
2022/10/23 00:43:34;;;;;;;75.05;52.75;;;19.50;80.80;;;;;;4950138;28;87059;-55
2022/10/23 00:46:00;;;;;;;73.75;52.67;;;19.60;80.90;;;;;;4946531;28;85797;-58
2022/10/23 00:48:27;;;;;;;74.55;52.60;;;19.50;80.80;;;;;;4948223;28;85588;-58
2022/10/23 00:50:53;;;;;;;73.47;52.47;;;19.50;80.70;;;;;;4952952;28;86224;-55
2022/10/23 00:53:20;;;;;;;76.13;52.45;;;19.50;80.60;;;;;;4955807;28;86242;-56
2022/10/23 00:55:48;;;;;;;74.30;52.90;;;19.50;80.80;;;;;;4948723;28;85697;-57
2022/10/23 00:58:17;;;;;;;77.25;52.92;;;19.50;80.80;;;;;;4953568;28;85770;-56
2022/10/23 01:00:47;;;;;;;73.20;52.55;;;19.60;80.80;;;;;;4949444;28;86663;-56
2022/10/23 01:03:18;;;;;;;73.50;52.58;;;19.50;80.70;;;;;;4948332;28;85089;-57
2022/10/23 01:06:01;;;;;;;76.60;53.13;;;19.50;80.80;;;;;;4949013;28;90100;-57
2022/10/23 01:08:42;;;;;;;74.53;52.75;;;19.50;80.80;;;;;;4954522;28;85328;-56
2022/10/23 01:11:18;;;;;;;75.25;52.58;;;19.50;80.70;;;;;;4955451;28;86434;-56
2022/10/23 01:14:05;;;;;;;73.50;52.05;;;19.50;80.60;;;;;;4956317;28;91370;-55
2022/10/23 01:16:48;;;;;;;74.07;52.42;;;19.50;80.60;;;;;;4949303;28;84844;-55
2022/10/23 01:19:26;;;;;;;73.60;52.63;;;19.50;80.70;;;;;;4954729;28;85642;-56
2022/10/23 01:22:19;;;;;;;72.45;52.10;;;19.50;80.60;;;;;;4952632;28;85447;-57
2022/10/23 01:24:57;;;;;;;73.00;52.10;;;19.50;80.60;;;;;;4943455;28;85268;-57
2022/10/23 01:27:27;;;;;;;74.68;52.38;;;19.50;80.50;;;;;;4951094;28;86335;-56
2022/10/23 01:29:58;;;;;;;72.90;52.83;;;19.50;80.50;;;;;;4947423;28;85062;-57
2022/10/23 01:32:31;;;;;;;74.05;52.45;;;19.50;80.70;;;;;;4954906;28;89849;-55
2022/10/23 01:35:06;;;;;;;73.22;52.55;;;19.50;80.50;;;;;;4953328;28;85270;-58
2022/10/23 01:37:41;;;;;;;73.80;52.28;;;19.50;80.50;;;;;;4961205;28;85499;-56
2022/10/23 01:40:19;;;;;;;72.07;52.03;;;19.50;80.50;;;;;;4946090;28;86111;-57
2022/10/23 01:42:49;;;;;;;72.63;51.95;;;19.50;80.50;;;;;;4951376;28;86789;-56
2022/10/23 01:45:30;;;;;;;72.78;52.13;;;19.50;80.50;;;;;;4938488;28;86472;-56
2022/10/23 01:47:56;;;;;;;72.32;52.05;;;19.40;80.40;;;;;;4947801;28;86607;-54
2022/10/23 01:50:23;;;;;;;73.15;52.15;;;19.50;80.50;;;;;;4950410;28;85501;-54
2022/10/23 01:52:49;;;;;;;72.55;52.22;;;19.50;80.30;;;;;;4946033;28;86557;-57
2022/10/23 01:55:16;;;;;;;72.10;52.03;;;19.50;80.50;;;;;;4947358;28;85396;-56
2022/10/23 01:57:43;;;;;;;71.85;51.95;;;19.40;80.30;;;;;;4943607;28;89275;-55
2022/10/23 02:00:13;;;;;;;72.13;51.80;;;19.40;80.30;;;;;;4951926;28;85341;-56
2022/10/23 02:02:42;;;;;;;73.10;52.08;;;19.40;80.30;;;;;;4942020;28;85099;-55
2022/10/23 02:05:14;;;;;;;73.72;51.72;;;19.40;80.30;;;;;;4952299;28;84887;-55
2022/10/23 02:07:40;;;;;;;71.95;52.28;;;19.40;80.20;;;;;;4961311;28;85424;-55
2022/10/23 02:10:08;;;;;;;73.40;52.25;;;19.40;80.30;;;;;;4948145;28;86307;-57
2022/10/23 02:12:51;;;;;;;72.25;51.65;;;19.50;80.30;;;;;;4948440;28;85876;-56
2022/10/23 02:15:41;;;;;;;71.88;51.78;;;19.40;80.30;;;;;;4938991;28;85237;-57
2022/10/23 02:18:16;;;;;;;72.30;51.85;;;19.50;80.30;;;;;;4935121;28;87130;-57
2022/10/23 02:20:52;;;;;;;71.95;52.15;;;19.40;80.20;;;;;;4940747;28;86074;-56
2022/10/23 02:23:34;;;;;;;72.38;52.20;;;19.40;80.10;;;;;;4950538;28;84959;-55
2022/10/23 02:26:13;;;;;;;73.50;51.80;;;19.50;80.30;;;;;;4949168;28;86573;-56
2022/10/23 02:28:44;;;;;;;72.53;52.03;;;19.40;80.20;;;;;;4957559;28;86095;-55
2022/10/23 02:31:14;;;;;;;71.10;51.78;;;19.40;80.20;;;;;;4954042;28;85700;-54
2022/10/23 02:33:41;;;;;;;71.32;51.58;;;19.40;80.10;;;;;;4952864;28;88344;-55
2022/10/23 02:36:07;;;;;;;71.57;52.05;;;19.40;80.10;;;;;;4947263;28;87771;-55
2022/10/23 02:38:41;;;;;;;72.97;52.22;;;19.40;80.20;;;;;;4956373;28;85249;-57
2022/10/23 02:41:32;;;;;;;71.90;51.50;;;19.40;80.10;;;;;;4953587;28;84979;-57
2022/10/23 02:44:21;;;;;;;;;;;19.50;80.20;;;;;;4959873;28;85785;-56
2022/10/23 02:46:54;;;;;;;71.75;51.97;;;19.40;80.10;;;;;;4941915;28;85661;-55
2022/10/23 02:49:47;;;;;;;71.80;51.72;;;19.40;80.10;;;;;;4971497;28;84968;-56
2022/10/23 02:52:31;;;;;;;71.55;51.55;;;19.40;80.20;;;;;;4950271;28;84983;-57
2022/10/23 02:55:16;;;;;;;72.25;51.88;;;19.40;80.10;;;;;;4957385;28;86955;-55
2022/10/23 02:57:51;;;;;;;74.00;52.08;;;19.40;80.10;;;;;;4956705;28;86098;-56
2022/10/23 03:00:19;;;;;;;72.15;51.75;;;19.40;80.10;;;;;;4955472;28;88268;-55
2022/10/23 03:02:58;;;;;;;71.22;51.35;;;19.40;80.10;;;;;;4957204;28;86515;-56
2022/10/23 03:05:34;;;;;;;72.63;51.90;;;19.40;80.10;;;;;;4950931;28;85357;-55
2022/10/23 03:08:03;;;;;;;71.28;51.50;;;19.40;80.00;;;;;;4950477;28;87524;-55
2022/10/23 03:10:29;;;;;;;72.05;51.78;;;19.40;80.00;;;;;;4954021;28;86114;-56
2022/10/23 03:12:55;;;;;;;71.72;51.38;;;19.40;80.00;;;;;;4953573;28;86904;-55
2022/10/23 03:15:20;;;;;;;71.88;51.38;;;19.40;80.00;;;;;;4947349;28;88387;-55
2022/10/23 03:17:46;;;;;;;71.68;51.47;;;19.40;80.10;;;;;;4956633;28;87200;-54
2022/10/23 03:20:12;;;;;;;70.78;51.42;;;19.40;80.00;;;;;;4937350;28;90287;-56
2022/10/23 03:22:38;;;;;;;71.20;51.33;;;19.40;80.00;;;;;;4947847;28;88540;-56
2022/10/23 03:25:04;;;;;;;71.18;51.42;;;19.40;80.00;;;;;;4953374;28;86061;-56
2022/10/23 03:27:29;;;;;;;71.55;51.70;;;19.40;80.00;;;;;;4947450;28;85820;-56
2022/10/23 03:29:55;;;;;;;71.75;51.20;;;19.40;80.00;;;;;;4946735;28;87139;-52
2022/10/23 03:32:21;;;;;;;72.20;51.45;;;19.40;80.00;;;;;;4944751;28;90621;-54
2022/10/23 03:34:46;;;;;;;71.68;51.92;;;19.40;79.90;;;;;;4941585;28;87181;-54
2022/10/23 03:37:12;;;;;;;71.85;51.30;;;19.40;80.00;;;;;;4953301;28;85642;-53
2022/10/23 03:39:38;;;;;;;71.88;51.33;;;19.40;79.90;;;;;;4955779;28;85843;-55
2022/10/23 03:42:03;;;;;;;71.35;51.67;;;19.40;79.90;;;;;;4956055;28;90193;-54
2022/10/23 03:44:30;;;;;;;71.32;51.35;;;19.40;79.90;;;;;;4951915;28;89606;-56
2022/10/23 03:46:56;;;;;;;70.75;51.20;;;19.40;79.90;;;;;;4949790;28;89816;-58
2022/10/23 03:49:21;;;;;;;70.47;51.28;;;19.40;79.90;;;;;;4942771;28;93777;-54
2022/10/23 03:51:51;;;;;;;72.43;51.72;;;19.30;79.80;;;;;;4940494;28;90829;-55
2022/10/23 03:54:20;;;;;;;71.00;51.50;;;19.40;79.90;;;;;;4951692;28;91118;-55
2022/10/23 03:56:45;;;;;;;70.95;51.08;;;19.30;79.80;;;;;;4951541;28;91049;-56
2022/10/23 03:59:11;;;;;;;71.03;51.53;;;19.30;79.70;;;;;;4944914;28;90846;-57
2022/10/23 04:01:37;;;;;;;71.28;51.53;;;19.30;79.80;;;;;;4954415;28;91686;-55
2022/10/23 04:04:02;;;;;;;71.20;51.22;;;19.30;79.80;;;;;;4955564;28;90385;-57
2022/10/23 04:06:28;;;;;;;71.28;51.15;;;19.30;79.80;;;;;;4945863;28;89820;-54
2022/10/23 04:08:54;;;;;;;70.88;51.80;;;19.30;79.70;;;;;;4943459;28;93100;-56
2022/10/23 04:11:19;;;;;;;71.53;51.17;;;19.30;79.70;;;;;;4955933;28;89916;-56
2022/10/23 04:13:45;;;;;;;69.82;50.83;;;19.30;79.80;;;;;;4941817;28;89548;-55
2022/10/23 04:16:10;;;;;;;71.28;51.25;;;19.30;79.80;;;;;;4949508;28;95726;-54
2022/10/23 04:18:36;;;;;;;71.85;51.58;;;19.30;79.80;;;;;;4943834;28;89677;-57
2022/10/23 04:21:02;;;;;;;70.78;51.45;;;19.30;79.80;;;;;;4953852;28;90143;-53
2022/10/23 04:23:28;;;;;;;71.32;51.55;;;19.30;79.80;;;;;;4947925;28;93526;-55
2022/10/23 04:25:56;;;;;;;70.80;51.13;;;19.30;79.80;;;;;;4947521;28;90192;-57
2022/10/23 04:28:22;;;;;;;73.20;51.60;;;19.30;79.80;;;;;;4939730;28;90517;-55
2022/10/23 04:30:48;;;;;;;70.80;51.38;;;19.30;79.70;;;;;;4954120;28;90974;-55
2022/10/23 04:33:14;;;;;;;69.97;51.05;;;19.30;79.70;;;;;;4944561;28;90981;-55
2022/10/23 04:35:39;;;;;;;70.85;51.42;;;19.30;79.70;;;;;;4952067;28;90374;-56
2022/10/23 04:38:05;;;;;;;70.28;50.92;;;19.30;79.70;;;;;;4947846;28;90044;-54
2022/10/23 04:40:30;;;;;;;70.45;51.10;;;19.30;79.70;;;;;;4944941;28;91165;-54
2022/10/23 04:42:56;;;;;;;70.53;51.13;;;19.30;79.70;;;;;;4947361;28;91175;-55
2022/10/23 04:45:22;;;;;;;70.55;51.35;;;19.30;79.60;;;;;;4943553;28;90426;-54
2022/10/23 04:47:48;;;;;;;70.93;50.80;;;19.30;79.70;;;;;;4947174;28;90858;-51
2022/10/23 04:50:14;;;;;;;70.35;50.83;;;19.30;79.70;;;;;;4951578;28;91139;-58
2022/10/23 04:52:40;;;;;;;70.70;51.13;;;19.30;79.70;;;;;;4944509;28;92030;-53
2022/10/23 04:55:07;;;;;;;70.50;51.00;;;19.30;79.70;;;;;;4950242;28;89892;-57
2022/10/23 04:57:32;;;;;;;70.20;51.08;;;19.30;79.70;;;;;;4957141;28;89011;-57
2022/10/23 04:59:58;;;;;;;71.45;51.08;;;19.30;79.70;;;;;;4938465;28;95377;-55
2022/10/23 05:02:24;;;;;;;70.75;51.58;;;19.30;79.60;;;;;;4937789;28;90956;-56
2022/10/23 05:04:49;;;;;;;70.35;51.08;;;19.30;79.60;;;;;;4950477;28;91141;-58
2022/10/23 05:07:15;;;;;;;70.22;51.05;;;19.30;79.60;;;;;;4949714;28;91259;-53
2022/10/23 05:09:41;;;;;;;70.43;51.15;;;19.30;79.70;;;;;;4942665;28;90946;-55
2022/10/23 05:12:07;;;;;;;71.22;51.50;;;19.30;79.70;;;;;;4947323;28;90186;-54
2022/10/23 05:14:32;;;;;;;70.72;51.28;;;19.30;79.70;;;;;;4946096;28;90253;-52
2022/10/23 05:17:02;;;;;;;70.75;51.05;;;19.30;79.70;;;;;;4956082;28;90342;-54
2022/10/23 05:19:34;;;;;;;70.22;50.95;;;19.30;79.60;;;;;;4946538;28;93030;-55
2022/10/23 05:22:01;;;;;;;70.40;51.15;;;19.30;79.60;;;;;;4952082;28;89758;-52
2022/10/23 05:24:27;;;;;;;70.75;50.92;;;19.30;79.60;;;;;;4959901;28;89718;-55
2022/10/23 05:26:53;;;;;;;70.22;50.95;;;19.30;79.60;;;;;;4948787;28;93137;-54
2022/10/23 05:29:19;;;;;;;70.13;51.00;;;19.30;79.60;;;;;;4949445;28;90652;-54
2022/10/23 05:31:47;;;;;;;70.30;50.95;;;19.30;79.60;;;;;;4949720;28;91586;-56
2022/10/23 05:34:15;;;;;;;71.15;51.08;;;19.20;79.60;;;;;;4953299;28;89831;-54
2022/10/23 05:36:42;;;;;;;71.00;51.35;;;19.30;79.50;;;;;;4941839;28;90565;-53
2022/10/23 05:39:07;;;;;;;70.30;50.90;;;19.20;79.50;;;;;;4943007;28;91325;-54
2022/10/23 05:41:33;;;;;;;70.13;50.97;;;19.30;79.60;;;;;;4951032;28;92959;-56
2022/10/23 05:43:59;;;;;;;71.82;51.28;;;19.20;79.50;;;;;;4949885;28;94640;-55
2022/10/23 05:46:26;;;;;;;70.63;51.13;;;19.20;79.50;;;;;;4952587;28;88829;-54
2022/10/23 05:48:52;;;;;;;70.10;50.88;;;19.20;79.60;;;;;;4943469;28;90276;-55
2022/10/23 05:51:21;;;;;;;70.40;51.08;;;19.20;79.50;;;;;;4955670;28;90012;-56
2022/10/23 05:53:51;;;;;;;71.15;51.22;;;19.20;79.50;;;;;;4956220;28;90679;-55
2022/10/23 05:56:16;;;;;;;70.68;50.85;;;19.20;79.50;;;;;;4949520;28;89717;-55
2022/10/23 05:58:42;;;;;;;71.35;51.38;;;19.20;79.60;;;;;;4943148;28;89589;-56
2022/10/23 06:01:11;;;;;;;69.88;50.80;;;19.20;79.50;;;;;;4954899;28;94451;-56
2022/10/23 06:03:37;;;;;;;70.78;51.08;;;19.20;79.60;;;;;;4947564;28;90284;-54
2022/10/23 06:06:03;;;;;;;70.18;51.05;;;19.20;79.50;;;;;;4950618;28;89833;-54
2022/10/23 06:08:30;;;;;;;70.53;51.08;;;19.20;79.50;;;;;;4943157;28;90110;-54
2022/10/23 06:10:55;;;;;;;70.30;50.85;;;19.20;79.50;;;;;;4946464;28;89683;-59
2022/10/23 06:13:21;;;;;;;70.75;51.10;;;19.20;79.50;;;;;;4952672;28;91407;-55
2022/10/23 06:15:47;;;;;;;69.90;51.03;;;19.20;79.50;;;;;;4943902;28;91154;-55
2022/10/23 06:18:12;;;;;;;70.53;51.08;;;19.20;79.50;;;;;;4944228;28;90997;-56
2022/10/23 06:20:38;;;;;;;71.43;51.20;;;19.20;79.50;;;;;;4945069;28;90856;-54
2022/10/23 06:23:05;;;;;;;70.03;50.75;;;19.20;79.50;;;;;;4937502;28;91253;-54
2022/10/23 06:25:31;;;;;;;69.88;50.83;;;19.20;79.50;;;;;;4948859;28;89807;-53
2022/10/23 06:27:57;;;;;;;70.72;50.80;;;19.20;79.50;;;;;;4954322;28;93413;-54
2022/10/23 06:30:23;;;;;;;69.97;50.80;;;19.20;79.50;;;;;;4958152;28;90261;-53
2022/10/23 06:32:49;;;;;;;70.03;50.78;;;19.20;79.40;;;;;;4944082;28;90398;-54
2022/10/23 06:35:15;;;;;;;70.78;51.25;;;19.20;79.40;;;;;;4942966;28;91840;-56
2022/10/23 06:37:40;;;;;;;71.95;51.05;;;19.20;79.50;;;;;;4945497;28;90359;-54
2022/10/23 06:40:07;;;;;;;70.38;50.95;;;19.20;79.70;;;;;;4946777;28;90305;-56
2022/10/23 06:42:34;;;;;;;69.82;50.85;;;19.20;79.40;;;;;;4945377;28;92689;-54
2022/10/23 06:44:59;;;;;;;70.22;51.13;;;19.20;79.40;;;;;;4943058;28;89813;-53
2022/10/23 06:47:25;;;;;;;70.80;51.03;;;19.20;79.30;;;;;;4952049;28;89891;-56
2022/10/23 06:49:51;;;;;;;73.35;51.08;;;19.20;79.40;;;;;;4947313;28;89689;-53
2022/10/23 06:52:16;;;;;;;70.40;51.05;;;19.20;79.40;;;;;;4947657;28;89985;-54
2022/10/23 06:54:42;;;;;;;70.28;50.90;;;19.20;79.40;;;;;;4946356;28;89644;-58
2022/10/23 06:57:08;;;;;;;69.43;50.72;;;19.20;79.30;;;;;;4954395;28;90184;-55
2022/10/23 06:59:33;;;;;;;71.13;50.92;;;19.20;79.30;;;;;;4944746;28;90393;-54
2022/10/23 07:01:59;;;;;;;69.65;50.95;;;19.20;79.30;;;;;;4942173;28;90942;-55
2022/10/23 07:04:25;;;;;;;70.55;50.92;;;19.20;79.20;;;;;;4952066;28;91033;-56
2022/10/23 07:06:55;;;;;;;71.20;51.05;;;19.20;79.30;;;;;;4943280;28;90505;-55
2022/10/23 07:09:21;;;;;;;71.07;50.92;;;19.20;79.30;;;;;;4955880;28;89707;-54
2022/10/23 07:11:46;;;;;;;70.40;50.78;;;19.20;79.20;;;;;;4945575;28;90349;-56
2022/10/23 07:14:12;;;;;;;70.18;51.10;;;19.20;79.30;;;;;;4951770;28;91655;-53
2022/10/23 07:16:38;;;;;;;70.35;50.75;;;19.20;79.20;;;;;;4947031;28;90606;-54
2022/10/23 07:19:05;;;;;;;71.05;51.20;;;19.20;79.20;;;;;;4942782;28;89883;-54
2022/10/23 07:21:33;;;;;;;70.75;51.65;;;19.20;79.20;;;;;;4943451;28;89917;-53
2022/10/23 07:23:59;;;;;;;69.90;50.58;;;19.20;79.20;;;;;;4949171;28;91096;-54
2022/10/23 07:26:26;;;;;;;70.05;51.03;;;19.20;79.20;;;;;;4961186;28;90184;-54
2022/10/23 07:28:54;;;;;;;70.85;50.90;;;19.20;79.20;;;;;;4952123;28;90104;-53
2022/10/23 07:31:21;;;;;;;69.93;50.88;;;19.20;79.20;;;;;;4947495;28;93711;-52
2022/10/23 07:33:47;;;;;;;71.05;51.00;;;19.20;79.10;;;;;;4944027;28;92365;-54
2022/10/23 07:36:12;;;;;;;69.88;50.78;;;19.20;79.10;;;;;;4944566;28;90694;-55
2022/10/23 07:38:38;;;;;;;70.55;51.45;;;19.20;79.10;;;;;;4951609;28;90768;-55
2022/10/23 07:41:04;;;;;;;69.95;50.90;;;19.20;79.10;;;;;;4950502;28;89902;-57
2022/10/23 07:43:30;;;;;;;70.25;51.03;;;19.20;79.10;;;;;;4950895;28;90327;-53
2022/10/23 07:45:56;;;;;;;70.60;50.95;;;19.20;79.10;;;;;;4945557;28;89739;-55
2022/10/23 07:48:22;;;;;;;69.95;51.30;;;19.20;79.10;;;;;;4950551;28;89750;-54
2022/10/23 07:50:49;;;;;;;70.00;50.75;;;19.20;79.10;;;;;;4954805;28;89888;-55
2022/10/23 07:53:23;;;;;;;70.03;51.33;;;19.20;79.20;;;;;;4945479;28;91963;-54
2022/10/23 07:56:00;;;;;;;69.63;50.70;;;19.20;79.10;;;;;;4936004;28;91254;-53
2022/10/23 07:58:26;;;;;;;69.72;51.05;;;19.20;79.00;;;;;;4945195;28;91475;-54
2022/10/23 08:01:00;;;;;;;70.60;51.10;;;19.20;78.90;;;;;;4940779;28;90022;-55
2022/10/23 08:03:32;;;;;;;69.93;50.75;;;19.20;79.10;;;;;;4945933;28;91309;-53
2022/10/23 08:05:58;;;;;;;70.00;50.63;;;19.20;79.00;;;;;;4944343;28;91348;-55
2022/10/23 08:08:25;;;;;;;69.75;50.55;;;19.20;79.00;;;;;;4942863;28;92834;-53
2022/10/23 08:10:53;;;;;;;70.43;51.47;;;19.20;79.00;;;;;;4940680;28;90000;-54
2022/10/23 08:13:20;;;;;;;69.85;50.92;;;19.20;79.00;;;;;;4939749;28;92005;-55
2022/10/23 08:15:48;;;;;;;69.97;50.72;;;19.20;79.00;;;;;;4947962;28;90510;-58
2022/10/23 08:18:13;;;;;;;70.05;51.08;;;19.20;79.00;;;;;;4944779;28;92324;-54
2022/10/23 08:20:45;;;;;;;70.18;50.95;;;19.20;79.00;;;;;;4948220;28;91939;-57
2022/10/23 08:23:11;;;;;;;;;;;19.20;79.00;;;;;;4949173;28;89555;-54
2022/10/23 08:25:38;;;;;;;69.78;50.60;;;19.20;79.00;;;;;;4946541;28;91137;-55
2022/10/23 08:28:05;;;;;;;69.60;50.60;;;19.20;79.00;;;;;;4943185;28;90620;-55
2022/10/23 08:30:30;;;;;;;69.70;50.83;;;19.20;79.00;;;;;;4950882;28;90244;-56
2022/10/23 08:32:56;;;;;;;69.72;51.05;;;19.20;79.00;;;;;;4954012;28;89611;-53
2022/10/23 08:35:22;;;;;;;69.65;50.78;;;19.20;79.00;;;;;;4947939;28;91129;-56
2022/10/23 08:37:47;;;;;;;69.72;50.65;;;19.20;79.00;;;;;;4942333;28;90158;-54
2022/10/23 08:40:16;;;;;;;69.75;50.63;;;19.20;79.00;;;;;;4946847;28;89852;-55
2022/10/23 08:42:46;;;;;;;69.93;50.80;;;19.20;78.90;;;;;;4948204;28;89839;-55
2022/10/23 08:45:29;;;;;;;69.90;51.00;;;19.20;79.00;;;;;;4947100;28;91119;-53
2022/10/23 08:48:00;;;;;;;69.78;50.83;;;19.20;79.00;;;;;;4950056;28;91300;-53
2022/10/23 08:50:34;;;;;;;70.13;50.80;;;19.20;78.90;;;;;;4945792;28;90111;-53
2022/10/23 08:53:17;;;;;;;69.82;50.88;;;19.20;78.90;;;;;;4945436;28;90056;-58
2022/10/23 08:55:48;;;;;;;69.70;50.85;;;19.30;78.90;;;;;;4944307;28;90363;-55
2022/10/23 08:58:28;;;;;;;70.78;51.10;;;19.30;79.00;;;;;;4944297;28;91081;-54
2022/10/23 09:00:53;;;;;;;69.65;50.55;;;19.20;79.00;;;;;;4942841;28;94380;-55
2022/10/23 09:03:20;;;;;;;70.00;51.00;;;19.20;78.90;;;;;;4954335;28;89052;-55
2022/10/23 09:06:13;;;;;;;72.13;51.22;;;19.30;78.80;;;;;;4946224;28;90476;-53
2022/10/23 09:09:05;;;;;;;70.13;51.10;;;19.30;78.80;;;;;;4951062;28;90149;-54
2022/10/23 09:12:10;;;;;;;70.03;51.25;;;19.30;78.90;;;;;;4947733;28;91427;-56
2022/10/23 09:14:55;;;;;;;69.97;50.65;;;19.30;78.80;;;;;;4949304;28;92514;-54
2022/10/23 09:17:25;;;;;;;70.72;51.05;;;19.30;78.80;;;;;;4938398;28;91200;-57
2022/10/23 09:20:11;;;;;;;70.75;51.00;;;19.30;78.80;;;;;;4942488;28;91255;-55
2022/10/23 09:22:37;;;;;;;70.20;50.92;;;19.30;78.80;;;;;;4943499;28;89764;-56
2022/10/23 09:25:14;;;;;;;71.30;50.85;;;19.30;78.70;;;;;;4953247;28;89969;-55
2022/10/23 09:27:50;;;;;;;70.95;51.10;;;19.30;78.70;;;;;;4947661;28;91144;-54
2022/10/23 09:30:36;;;;;;;70.97;51.50;;;19.30;78.70;;;;;;4951193;28;89495;-54
2022/10/23 09:33:18;;;;;;;69.93;50.75;;;19.30;78.80;;;;;;4944709;28;95397;-53
2022/10/23 09:36:00;;;;;;;71.05;51.08;;;19.30;78.80;;;;;;4939366;28;95509;-55
2022/10/23 09:38:27;;;;;;;72.13;52.28;;;19.30;78.70;;;;;;4943987;28;92383;-52
2022/10/23 09:40:52;;;;;;;70.88;50.78;;;19.30;78.70;;;;;;4950183;28;90048;-55
2022/10/23 09:43:24;;;;;;;70.53;51.00;;;19.30;78.70;;;;;;4938993;28;92564;-54
2022/10/23 09:45:58;;;;;;;70.72;50.95;;;19.40;78.70;;;;;;4947974;28;92837;-53
2022/10/23 09:48:24;;;;;;;70.60;50.90;;;19.30;78.70;;;;;;4941146;28;90074;-51
2022/10/23 09:50:56;;;;;;;71.30;51.22;;;19.40;78.70;;;;;;4949509;28;89897;-53
2022/10/23 09:53:29;;;;;;;72.10;51.05;;;19.40;78.70;;;;;;4949808;28;89552;-54
2022/10/23 09:55:58;;;;;;;70.80;51.33;;;19.40;78.70;;;;;;4942311;28;89770;-55
2022/10/23 09:58:32;;;;;;;70.35;51.05;;;19.40;78.70;;;;;;4948063;28;91222;-55
2022/10/23 10:00:58;;;;;;;71.57;51.17;;;19.40;78.60;;;;;;4943331;28;93251;-53
2022/10/23 10:03:24;;;;;;;71.22;51.28;;;19.40;78.60;;;;;;4947774;28;91403;-54
2022/10/23 10:06:02;;;;;;;70.95;51.35;;;19.40;78.60;;;;;;4942630;28;93687;-52
2022/10/23 10:08:48;;;;;;;70.80;51.05;;;19.40;78.60;;;;;;4953458;28;90041;-53
2022/10/23 10:11:40;;;;;;;70.53;51.05;;;19.40;78.60;;;;;;4928551;28;92402;-53
2022/10/23 10:14:39;;;;;;;71.63;51.63;;;19.40;78.60;;;;;;4951555;28;89957;-52
2022/10/23 10:17:25;;;;;;;71.00;51.45;;;19.40;78.60;;;;;;4941819;28;92661;-50
2022/10/23 10:19:57;;;;;;;71.43;51.35;;;19.40;78.60;;;;;;4949120;28;90862;-52
2022/10/23 10:22:56;;;;;;;71.00;51.25;;;19.50;78.60;;;;;;4940441;28;91134;-53
2022/10/23 10:25:24;;;;;;;73.32;51.60;;;19.50;78.60;;;;;;4944095;28;90078;-50
2022/10/23 10:27:52;;;;;;;81.45;52.78;;;19.50;78.70;;;;;;4940378;28;90326;-52
2022/10/23 10:30:23;;;;;;;79.13;52.65;;;19.50;79.30;;;;;;4950405;28;91180;-55
2022/10/23 10:33:12;;;;;;;82.13;53.70;;;19.60;79.50;;;;;;4955150;28;90762;-54
2022/10/23 10:36:00;;;;;;;81.53;54.03;;;19.60;79.60;;;;;;4939967;28;90113;-54
2022/10/23 10:39:02;;;;;;;86.82;54.50;;;19.70;79.80;;;;;;4949064;28;90736;-59
2022/10/23 10:41:27;;;;;;;90.90;57.28;;;19.80;80.00;;;;;;4947040;28;95142;-58
2022/10/23 10:44:28;;;;;;;105.55;59.65;;;19.80;79.90;;;;;;4951462;28;90005;-50
2022/10/23 10:47:02;;;;;;;97.88;57.80;;;19.90;79.70;;;;;;4932225;28;92308;-49
2022/10/23 10:49:44;;;;;;;93.45;57.63;;;19.90;80.10;;;;;;4938546;28;90437;-53
2022/10/23 10:52:29;;;;;;;92.25;57.92;;;20.00;80.10;;;;;;4945717;28;91166;-51
2022/10/23 10:55:01;;;;;;;88.45;56.80;;;20.10;80.40;;;;;;4961702;28;89767;-56
2022/10/23 10:57:40;;;;;;;86.30;54.90;;;20.00;79.20;;;;;;4946376;28;91330;-54
2022/10/23 11:00:15;;;;;;;83.13;54.53;;;19.80;79.20;;;;;;4955128;28;91270;-55
2022/10/23 11:02:52;;;;;;;84.05;55.10;;;19.70;79.80;;;;;;4941711;28;90504;-56
2022/10/23 11:05:32;;;;;;;86.68;55.50;;;19.70;80.00;;;;;;4953961;28;89724;-54
2022/10/23 11:08:04;;;;;;;82.07;54.70;;;19.70;81.30;;;;;;4949036;28;91584;-51
2022/10/23 11:10:31;;;;;;;83.88;54.55;;;19.70;80.30;;;;;;4961305;28;92519;-51
2022/10/23 11:12:57;;;;;;;79.20;53.63;;;19.70;81.30;;;;;;4948108;28;90290;-59
2022/10/23 11:15:29;;;;;;;80.05;53.45;;;19.70;80.60;;;;;;4953259;28;91564;-54
2022/10/23 11:18:02;;;;;;;81.07;53.85;;;19.70;79.60;;;;;;4954182;28;92621;-50
2022/10/23 11:21:07;;;;;;;83.43;54.97;;;19.70;80.70;;;;;;4952930;28;92366;-54
2022/10/23 11:23:46;;;;;;;82.57;53.80;;;19.70;79.50;;;;;;4951966;28;91099;-57
2022/10/23 11:26:32;;;;;;;84.00;54.25;;;19.70;79.90;;;;;;4952440;28;91100;-59
2022/10/23 11:29:17;;;;;;;82.55;53.97;;;19.70;80.60;;;;;;4956515;28;89368;-52
2022/10/23 11:31:49;;;;;;;81.75;53.25;;;19.80;78.80;;;;;;4953252;28;90097;-53
2022/10/23 11:34:48;;;;;;;81.28;54.08;;;19.80;78.30;;;;;;4950134;28;91950;-51
2022/10/23 11:37:18;;;;;;;79.63;53.17;;;19.80;79.50;;;;;;4952232;28;90184;-53
2022/10/23 11:40:23;;;;;;;83.70;54.08;;;19.90;78.20;;;;;;4959331;28;89861;-58
2022/10/23 11:42:50;;;;;;;81.45;54.35;;;19.80;78.30;;;;;;4948211;28;88969;-56
2022/10/23 11:45:30;;;;;;;84.15;54.92;;;19.90;78.20;;;;;;4935984;28;89807;-56
2022/10/23 11:48:00;;;;;;;79.80;53.40;;;19.90;78.10;;;;;;4938672;28;91005;-55
2022/10/23 11:50:46;;;;;;;82.22;54.92;;;19.90;78.40;;;;;;4950389;28;91986;-55
2022/10/23 11:53:38;;;;;;;78.50;53.17;;;19.90;79.10;;;;;;4937376;28;90684;-55
2022/10/23 11:56:09;;;;;;;85.13;54.92;;;19.90;78.30;;;;;;4939815;28;91099;-55
2022/10/23 11:58:50;;;;;;;81.65;54.03;;;19.90;78.40;;;;;;4947410;28;90219;-56
2022/10/23 12:01:42;;;;;;;80.00;53.92;;;19.90;78.60;;;;;;4941501;28;90115;-55
2022/10/23 12:04:14;;;;;;;79.53;54.35;;;20.00;77.90;;;;;;4947304;28;91114;-55
2022/10/23 12:06:43;;;;;;;84.35;54.50;;;20.00;78.10;;;;;;4943051;28;90334;-54
2022/10/23 12:09:41;;;;;;;83.85;54.50;;;20.00;77.80;;;;;;4944992;28;90487;-56
2022/10/23 12:12:07;;;;;;;79.80;53.47;;;20.00;77.90;;;;;;4945942;28;90160;-55
2022/10/23 12:14:47;;;;;;;79.55;54.15;;;20.00;78.00;;;;;;4935374;28;93874;-56
2022/10/23 12:17:22;;;;;;;83.13;54.97;;;20.00;77.80;;;;;;4940469;28;92372;-56
2022/10/23 12:19:48;;;;;;;81.18;53.80;;;20.10;77.80;;;;;;4941121;28;90905;-53
2022/10/23 12:22:15;;;;;;;79.70;53.97;;;20.20;78.10;;;;;;4947989;28;89563;-53
2022/10/23 12:24:52;;;;;;;82.93;53.67;;;20.20;78.40;;;;;;4945034;28;89428;-54
2022/10/23 12:27:28;;;;;;;83.63;54.53;;;20.20;78.10;;;;;;4949667;28;90818;-55
2022/10/23 12:30:21;;;;;;;81.47;54.22;;;20.30;77.80;;;;;;4947991;28;92321;-53
2022/10/23 12:32:59;;;;;;;80.88;53.78;;;20.30;77.30;;;;;;4947913;28;89858;-55
2022/10/23 12:35:31;;;;;;;79.13;53.75;;;20.30;77.70;;;;;;4954913;28;91827;-53
2022/10/23 12:38:05;;;;;;;81.50;54.00;;;20.30;77.50;;;;;;4939599;28;89971;-57
2022/10/23 12:40:31;;;;;;;83.30;53.97;;;20.40;78.10;;;;;;4950805;28;95203;-53
2022/10/23 12:42:58;;;;;;;81.68;53.90;;;20.40;77.00;;;;;;4945704;28;92457;-55
2022/10/23 12:45:30;;;;;;;78.07;53.22;;;20.40;77.30;;;;;;4956286;28;90143;-58
2022/10/23 12:47:56;;;;;;;81.30;53.90;;;20.40;76.80;;;;;;4954691;28;91134;-55
2022/10/23 12:50:27;;;;;;;83.47;54.13;;;20.40;77.80;;;;;;4953321;28;89870;-53